createdAt,value
2022-10-17T00:01:16.500Z,0.62
2022-10-17T00:16:33.776Z,0.95
2022-10-17T00:31:38.712Z,2.02
2022-10-17T00:46:43.729Z,1.02
2022-10-17T01:02:07.309Z,1.05
2022-10-17T01:17:24.154Z,0.20
2022-10-17T01:32:35.072Z,0.62
2022-10-17T01:47:42.712Z,0.55
2022-10-17T02:02:50.327Z,0.62
2022-10-17T02:18:21.075Z,0.90
2022-10-17T02:33:52.142Z,1.20
2022-10-17T02:49:03.448Z,0.65
2022-10-17T03:04:11.266Z,2.90
2022-10-17T03:19:16.270Z,1.60
2022-10-17T03:34:21.686Z,1.15
2022-10-17T03:49:27.141Z,2.37
2022-10-17T04:04:32.156Z,6.08
2022-10-17T04:19:37.236Z,4.25
2022-10-17T04:34:44.044Z,7.17
2022-10-17T04:49:49.064Z,6.10
2022-10-17T05:04:54.241Z,4.10
2022-10-17T05:19:59.382Z,9.60
2022-10-17T05:35:06.235Z,3.37
2022-10-17T05:50:11.771Z,0.60
2022-10-17T06:20:25.635Z,0.40
2022-10-17T06:35:30.796Z,0.37
2022-10-17T06:50:35.864Z,1.25
2022-10-17T07:05:53.216Z,0.20
2022-10-17T07:20:58.227Z,1.80
2022-10-17T07:36:05.102Z,0.28
2022-10-17T07:51:11.635Z,0.90
2022-10-17T08:06:16.868Z,2.92
2022-10-17T08:21:23.305Z,1.12
2022-10-17T08:36:29.218Z,0.45
2022-10-17T08:51:37.218Z,1.52
2022-10-17T09:07:00.412Z,1.00
2022-10-17T09:22:17.211Z,0.75
2022-10-17T09:37:25.188Z,0.53
2022-10-17T09:52:42.008Z,0.65
2022-10-17T10:08:05.161Z,0.72
2022-10-17T10:23:17.376Z,0.45
2022-10-17T10:38:22.759Z,0.62
2022-10-17T10:53:39.804Z,2.30
2022-10-17T11:08:53.784Z,1.10
2022-10-17T11:24:06.911Z,1.70
2022-10-17T11:39:16.780Z,0.45
2022-10-17T11:54:49.156Z,1.20
2022-10-17T12:10:00.211Z,0.77
2022-10-17T12:25:06.078Z,1.30
2022-10-17T12:40:39.956Z,1.13
2022-10-17T12:55:45.070Z,1.30
2022-10-17T13:10:52.641Z,0.40
2022-10-17T13:26:06.109Z,1.47
2022-10-17T13:41:35.754Z,1.57
2022-10-17T13:56:28.798Z,0.73
2022-10-17T14:11:35.953Z,1.20
2022-10-17T14:26:49.401Z,1.07
2022-10-17T14:41:55.203Z,1.53
